Trappist, Kentucky
Current Conditions -  °F | °C
As of 11:35 AM on Sunday 25 Jan 2015 (Local Time) from K6I2 Reporting Station
Broken Clouds Broken Clouds  
Wind Chill: 38°   Ceiling: 8000
Heat Index: 45°   Visibility: 10mi
Dew Point: 34°   Wind: 14mph
Humidity: 66%   Direction: 160°SSE
Pressure: 29.71"   Gusts: 21mph
Location:  37.6609°N, 85.573°W
Report Text: K6I2 251635Z AUTO 16012G18KT 10SM BKN080 07/01 A2971 RMK AO2
Loading
Personal Weather Stations






























Interactive Weather Map New forecast layout! Learn more

10-Day Weather Forecast

Advertisements
Track Severe Weather on mobile